createdAt,value
2023-05-03T00:00:12.447Z,1.35
2023-05-03T00:02:40.223Z,1.40
2023-05-03T00:05:12.485Z,1.38
2023-05-03T00:07:43.360Z,1.50
2023-05-03T00:10:12.892Z,1.23
2023-05-03T00:12:40.674Z,1.20
2023-05-03T00:15:08.627Z,1.23
2023-05-03T00:17:35.631Z,1.98
2023-05-03T00:20:04.537Z,1.02
2023-05-03T00:22:32.272Z,1.20
2023-05-03T00:24:59.855Z,1.40
2023-05-03T00:27:26.460Z,1.90
2023-05-03T00:29:53.150Z,1.63
2023-05-03T00:32:22.639Z,1.42
2023-05-03T00:34:54.238Z,1.30
2023-05-03T00:37:21.238Z,1.75
2023-05-03T00:39:48.209Z,1.50
2023-05-03T00:42:14.840Z,1.20
2023-05-03T00:44:41.636Z,1.70
2023-05-03T00:47:08.909Z,1.50
2023-05-03T00:49:35.724Z,1.27
2023-05-03T00:52:02.786Z,1.23
2023-05-03T00:54:30.431Z,1.60
2023-05-03T00:56:57.148Z,1.50
2023-05-03T00:59:23.871Z,1.58
2023-05-03T01:01:53.015Z,1.70
2023-05-03T01:04:21.633Z,1.60
2023-05-03T01:07:19.081Z,1.30
2023-05-03T01:09:53.459Z,2.03
2023-05-03T01:13:04.826Z,1.60
2023-05-03T01:15:31.441Z,1.38
2023-05-03T01:18:01.598Z,1.17
2023-05-03T01:20:30.898Z,1.90
2023-05-03T01:23:05.279Z,1.80
2023-05-03T01:25:32.669Z,1.48
2023-05-03T01:27:59.232Z,1.40
2023-05-03T01:30:28.012Z,2.10
2023-05-03T01:33:05.969Z,1.98
2023-05-03T01:35:44.562Z,1.77
2023-05-03T01:38:13.157Z,1.52
2023-05-03T01:40:52.877Z,1.80
2023-05-03T01:43:21.037Z,1.50
2023-05-03T01:45:48.327Z,1.65
2023-05-03T01:48:16.638Z,2.05
2023-05-03T01:50:43.184Z,1.85
2023-05-03T01:53:09.712Z,1.50
2023-05-03T01:55:36.384Z,1.83
2023-05-03T01:58:03.091Z,1.75
2023-05-03T02:00:29.633Z,1.85
2023-05-03T02:02:57.013Z,2.00
2023-05-03T02:05:23.845Z,2.17
2023-05-03T02:07:50.468Z,1.60
2023-05-03T02:10:17.371Z,2.30
2023-05-03T02:12:44.792Z,2.40
2023-05-03T02:15:12.511Z,2.15
2023-05-03T02:17:39.502Z,2.15
2023-05-03T02:20:06.864Z,2.20
2023-05-03T02:22:33.439Z,2.30
2023-05-03T02:24:59.944Z,2.42
2023-05-03T02:27:26.454Z,2.60
2023-05-03T02:29:53.216Z,2.42
2023-05-03T02:32:20.981Z,2.30
2023-05-03T02:34:49.398Z,2.75
2023-05-03T02:37:20.036Z,2.40
2023-05-03T02:39:47.234Z,2.28
2023-05-03T02:42:15.238Z,2.47
2023-05-03T02:44:43.631Z,2.28
2023-05-03T02:47:10.453Z,2.60
2023-05-03T02:49:40.089Z,2.60
2023-05-03T02:52:06.922Z,2.17
2023-05-03T02:54:33.583Z,2.88
2023-05-03T02:57:05.148Z,2.47
2023-05-03T02:59:32.891Z,2.55
2023-05-03T03:02:00.462Z,2.08
2023-05-03T03:04:27.326Z,2.85
2023-05-03T03:06:54.005Z,2.47
2023-05-03T03:09:20.650Z,3.03
2023-05-03T03:11:47.141Z,2.65
2023-05-03T03:14:14.416Z,2.45
2023-05-03T03:16:40.998Z,2.67
2023-05-03T03:19:07.546Z,2.40
2023-05-03T03:21:36.100Z,3.00
2023-05-03T03:24:03.910Z,2.67
2023-05-03T03:26:30.682Z,2.63
2023-05-03T03:28:58.306Z,2.88
2023-05-03T03:31:25.925Z,3.28
2023-05-03T03:33:54.926Z,2.75
2023-05-03T03:36:23.123Z,2.85
2023-05-03T03:38:49.688Z,3.47
2023-05-03T03:41:16.305Z,3.33
2023-05-03T03:43:43.945Z,2.90
2023-05-03T03:46:16.651Z,2.92
2023-05-03T03:48:43.653Z,3.25
2023-05-03T03:51:11.371Z,2.45
2023-05-03T03:53:44.019Z,3.40
2023-05-03T03:56:10.780Z,3.00
2023-05-03T03:58:37.534Z,2.75
2023-05-03T04:01:07.547Z,3.00
2023-05-03T04:03:34.481Z,2.60
2023-05-03T04:06:01.439Z,2.40
2023-05-03T04:08:28.848Z,2.53
2023-05-03T04:10:55.476Z,2.70
2023-05-03T04:13:22.151Z,3.00
2023-05-03T04:15:55.359Z,3.05
2023-05-03T04:18:22.899Z,2.58
2023-05-03T04:20:50.161Z,2.85
2023-05-03T04:23:16.920Z,2.80
2023-05-03T04:25:46.969Z,2.72
2023-05-03T04:28:15.219Z,2.70
2023-05-03T04:30:47.423Z,2.95
2023-05-03T04:33:17.479Z,2.60
2023-05-03T04:35:44.181Z,2.80
2023-05-03T04:38:14.676Z,2.55
2023-05-03T04:40:41.329Z,2.72
2023-05-03T04:43:09.819Z,2.88
2023-05-03T04:45:40.919Z,2.95
2023-05-03T04:48:10.622Z,2.60
2023-05-03T04:50:37.255Z,2.70
2023-05-03T04:53:06.618Z,2.92
2023-05-03T04:55:36.525Z,3.03
2023-05-03T04:58:04.492Z,3.13
2023-05-03T05:00:31.026Z,3.17
2023-05-03T05:03:03.853Z,2.95
2023-05-03T05:05:31.198Z,3.03
2023-05-03T05:07:59.359Z,2.90
2023-05-03T05:10:30.200Z,2.75
2023-05-03T05:12:58.217Z,2.80
2023-05-03T05:15:25.179Z,3.17
2023-05-03T05:17:51.991Z,3.63
2023-05-03T05:20:20.125Z,3.83
2023-05-03T05:22:49.717Z,3.80
2023-05-03T05:25:16.342Z,3.60
2023-05-03T05:27:43.399Z,3.50
2023-05-03T05:30:10.132Z,3.90
2023-05-03T05:32:39.853Z,3.42
2023-05-03T05:35:09.511Z,3.60
2023-05-03T05:37:36.443Z,4.50
2023-05-03T05:40:05.895Z,4.18
2023-05-03T05:42:37.902Z,4.70
2023-05-03T05:45:05.435Z,4.70
2023-05-03T05:47:32.513Z,4.53
2023-05-03T05:49:59.405Z,4.15
2023-05-03T05:52:26.252Z,4.38
2023-05-03T05:54:52.950Z,4.55
2023-05-03T05:57:21.088Z,4.15
2023-05-03T05:59:47.939Z,4.65
2023-05-03T06:02:18.695Z,4.40
2023-05-03T06:04:46.902Z,4.28
2023-05-03T06:07:14.976Z,4.32
2023-05-03T06:09:41.502Z,4.43
2023-05-03T06:12:08.227Z,4.50
2023-05-03T06:14:37.412Z,4.20
2023-05-03T06:17:04.444Z,3.80
2023-05-03T06:19:31.150Z,4.03
2023-05-03T06:21:57.800Z,3.90
2023-05-03T06:24:24.512Z,3.83
2023-05-03T06:26:54.128Z,3.60
2023-05-03T06:29:20.845Z,4.18
2023-05-03T06:31:47.370Z,3.60
2023-05-03T06:34:20.060Z,4.15
2023-05-03T06:36:46.641Z,3.28
2023-05-03T06:39:13.217Z,3.25
2023-05-03T06:41:39.678Z,3.38
2023-05-03T06:44:07.356Z,3.30
2023-05-03T06:46:34.005Z,2.97
2023-05-03T06:49:00.627Z,3.20
2023-05-03T06:51:29.529Z,3.55
2023-05-03T06:54:06.650Z,3.03
2023-05-03T06:56:36.516Z,2.60
2023-05-03T06:59:03.980Z,2.83
2023-05-03T07:01:34.182Z,2.60
2023-05-03T07:04:01.182Z,3.03
2023-05-03T07:06:27.907Z,3.05
2023-05-03T07:08:54.645Z,1.98
2023-05-03T07:11:24.806Z,2.00
2023-05-03T07:13:52.336Z,1.55
2023-05-03T07:16:19.778Z,1.95
2023-05-03T07:18:47.534Z,1.95
2023-05-03T07:21:14.987Z,1.90
2023-05-03T07:23:41.917Z,1.63
2023-05-03T07:26:08.590Z,1.80
2023-05-03T07:28:35.339Z,1.40
2023-05-03T07:31:04.637Z,1.55
2023-05-03T07:33:34.579Z,1.40
2023-05-03T07:36:01.279Z,1.67
2023-05-03T07:38:27.782Z,1.60
2023-05-03T07:40:54.315Z,1.55
2023-05-03T07:43:23.550Z,1.83
2023-05-03T07:45:50.088Z,1.42
2023-05-03T07:48:16.576Z,1.27
2023-05-03T07:50:44.126Z,1.40
2023-05-03T07:53:11.689Z,1.27
2023-05-03T07:55:38.482Z,1.20
2023-05-03T07:58:05.095Z,1.30
2023-05-03T08:00:31.666Z,1.13
2023-05-03T08:02:58.223Z,1.02
2023-05-03T08:05:24.942Z,1.20
2023-05-03T08:07:51.535Z,1.23
2023-05-03T08:10:18.062Z,0.60
2023-05-03T08:12:45.627Z,1.13
2023-05-03T08:15:12.291Z,1.10
2023-05-03T08:17:45.808Z,0.70
2023-05-03T08:20:13.477Z,1.00
2023-05-03T08:22:41.324Z,1.30
2023-05-03T08:25:08.457Z,0.95
2023-05-03T08:27:35.131Z,0.80
2023-05-03T08:30:02.489Z,1.13
2023-05-03T08:32:30.465Z,1.40
2023-05-03T08:34:57.082Z,1.02
2023-05-03T08:37:23.876Z,0.90
2023-05-03T08:39:50.423Z,1.10
2023-05-03T08:42:16.964Z,0.82
2023-05-03T08:44:51.009Z,0.90
2023-05-03T08:47:17.542Z,1.08
2023-05-03T08:49:44.630Z,0.70
2023-05-03T08:52:14.035Z,0.95
2023-05-03T08:54:41.547Z,0.80
2023-05-03T08:57:14.534Z,0.60
2023-05-03T08:59:53.531Z,0.80
2023-05-03T09:02:20.408Z,0.68
2023-05-03T09:04:47.094Z,1.10
2023-05-03T09:07:15.868Z,1.08
2023-05-03T09:09:45.626Z,0.80
2023-05-03T09:12:33.761Z,0.60
2023-05-03T09:15:00.957Z,0.93
2023-05-03T09:17:27.475Z,1.00
2023-05-03T09:19:56.588Z,1.30
2023-05-03T09:22:28.018Z,0.80
2023-05-03T09:24:58.554Z,1.38
2023-05-03T09:27:26.781Z,0.68
2023-05-03T09:29:54.250Z,0.60
2023-05-03T09:32:22.944Z,1.17
2023-05-03T09:34:49.525Z,0.75
2023-05-03T09:37:16.458Z,0.90
2023-05-03T09:39:45.946Z,0.95
2023-05-03T09:42:17.112Z,1.00
2023-05-03T09:44:49.072Z,1.08
2023-05-03T09:47:16.043Z,1.00
2023-05-03T09:49:43.553Z,0.93
2023-05-03T09:52:11.074Z,1.00
2023-05-03T09:54:38.735Z,1.60
2023-05-03T09:57:06.680Z,1.27
2023-05-03T09:59:34.743Z,1.10
2023-05-03T10:02:04.074Z,0.98
2023-05-03T10:04:38.946Z,1.00
2023-05-03T10:07:10.651Z,1.20
2023-05-03T10:09:47.282Z,0.90
2023-05-03T10:12:17.483Z,1.20
2023-05-03T10:14:48.662Z,1.10
2023-05-03T10:17:42.930Z,1.10
2023-05-03T10:20:20.772Z,1.05
2023-05-03T10:23:09.500Z,0.90
2023-05-03T10:25:37.551Z,1.27
2023-05-03T10:28:06.049Z,0.93
2023-05-03T10:30:37.277Z,1.08
2023-05-03T10:33:12.638Z,1.10
2023-05-03T10:35:41.340Z,0.90
2023-05-03T10:38:17.945Z,1.30
2023-05-03T10:40:44.550Z,0.95
2023-05-03T10:43:32.122Z,1.17
2023-05-03T10:45:59.729Z,1.05
2023-05-03T10:48:26.745Z,1.13
2023-05-03T10:50:53.277Z,1.40
2023-05-03T10:53:40.064Z,1.30
2023-05-03T10:56:13.941Z,1.02
2023-05-03T10:58:45.223Z,1.08
2023-05-03T11:01:13.974Z,1.10
2023-05-03T11:03:50.033Z,1.00
2023-05-03T11:06:37.009Z,1.05
2023-05-03T11:09:08.664Z,0.98
2023-05-03T11:11:37.097Z,1.27
2023-05-03T11:14:05.751Z,0.77
2023-05-03T11:16:32.474Z,1.10
2023-05-03T11:18:59.889Z,1.08
2023-05-03T11:21:26.445Z,1.08
2023-05-03T11:23:53.029Z,1.17
2023-05-03T11:26:23.566Z,1.23
2023-05-03T11:28:50.105Z,1.13
2023-05-03T11:31:16.793Z,0.95
2023-05-03T11:33:43.626Z,1.30
2023-05-03T11:36:10.647Z,1.00
2023-05-03T11:38:38.840Z,1.00
2023-05-03T11:41:17.480Z,1.17
2023-05-03T11:43:54.909Z,1.10
2023-05-03T11:46:27.778Z,1.40
2023-05-03T11:48:54.841Z,0.98
2023-05-03T11:51:22.815Z,1.35
2023-05-03T11:53:49.809Z,1.02
2023-05-03T11:56:20.666Z,1.10
2023-05-03T11:58:58.719Z,1.10
2023-05-03T12:01:27.553Z,1.30
2023-05-03T12:03:59.445Z,1.00
2023-05-03T12:06:28.884Z,1.50
2023-05-03T12:08:57.356Z,1.13
2023-05-03T12:11:27.118Z,1.33
2023-05-03T12:13:58.900Z,1.48
2023-05-03T12:16:27.037Z,1.30
2023-05-03T12:19:03.256Z,1.40
2023-05-03T12:24:20.394Z,1.48
2023-05-03T12:26:48.917Z,1.38
2023-05-03T12:29:17.992Z,1.50
2023-05-03T12:31:49.154Z,1.63
2023-05-03T12:34:32.797Z,1.30
2023-05-03T12:37:04.849Z,1.17
2023-05-03T12:39:33.013Z,1.40
2023-05-03T12:44:33.176Z,1.40
2023-05-03T12:47:01.762Z,1.58
2023-05-03T12:49:29.041Z,1.00
2023-05-03T12:52:23.831Z,1.20
2023-05-03T12:54:48.789Z,1.17
2023-05-03T12:57:22.581Z,1.50
2023-05-03T12:59:53.934Z,1.70
2023-05-03T13:05:00.478Z,1.25
2023-05-03T13:07:30.714Z,1.40
2023-05-03T13:12:28.625Z,1.50
2023-05-03T13:14:55.851Z,1.48
2023-05-03T13:17:23.216Z,1.45
2023-05-03T13:19:51.387Z,1.30
2023-05-03T13:22:18.381Z,1.40
2023-05-03T13:24:46.604Z,1.55
2023-05-03T13:27:13.930Z,1.30
2023-05-03T13:29:41.196Z,1.70
2023-05-03T13:32:08.583Z,1.13
2023-05-03T13:34:36.487Z,1.48
2023-05-03T13:37:04.289Z,1.80
2023-05-03T13:39:31.162Z,1.58
2023-05-03T13:41:57.658Z,1.60
2023-05-03T13:44:25.465Z,1.67
2023-05-03T13:46:52.561Z,1.67
2023-05-03T13:49:19.624Z,1.88
2023-05-03T13:51:46.208Z,1.67
2023-05-03T13:54:12.779Z,1.63
2023-05-03T13:56:40.371Z,2.00
2023-05-03T13:59:08.410Z,1.75
2023-05-03T14:01:36.130Z,2.13
2023-05-03T14:04:03.695Z,1.90
2023-05-03T14:06:33.373Z,1.80
2023-05-03T14:09:01.582Z,1.58
2023-05-03T14:11:29.803Z,1.73
2023-05-03T14:13:57.832Z,1.90
2023-05-03T14:18:56.050Z,1.80
2023-05-03T14:21:22.779Z,1.65
2023-05-03T14:23:52.457Z,1.85
2023-05-03T14:26:20.004Z,1.75
2023-05-03T14:28:47.132Z,1.73
2023-05-03T14:31:13.822Z,2.05
2023-05-03T14:33:40.392Z,1.60
2023-05-03T14:36:11.903Z,1.90
2023-05-03T14:38:38.476Z,1.90
2023-05-03T14:41:05.090Z,1.70
2023-05-03T14:43:32.341Z,1.90
2023-05-03T14:45:58.885Z,1.67
2023-05-03T14:48:25.386Z,1.92
2023-05-03T14:50:52.611Z,1.67
2023-05-03T14:53:19.248Z,1.85
2023-05-03T14:55:46.466Z,1.83
2023-05-03T14:58:13.418Z,1.63
2023-05-03T15:00:40.927Z,1.95
2023-05-03T15:03:11.592Z,1.77
2023-05-03T15:05:45.725Z,1.95
2023-05-03T15:08:15.134Z,2.05
2023-05-03T15:10:44.353Z,1.95
2023-05-03T15:13:15.532Z,1.38
2023-05-03T15:15:46.030Z,1.80
2023-05-03T15:18:14.485Z,1.60
2023-05-03T15:20:41.340Z,3.58
2023-05-03T15:23:08.134Z,1.58
2023-05-03T15:25:35.511Z,1.73
2023-05-03T15:28:04.323Z,1.55
2023-05-03T15:30:32.680Z,1.80
2023-05-03T15:32:59.570Z,1.80
2023-05-03T15:35:26.177Z,1.30
2023-05-03T15:37:52.717Z,1.10
2023-05-03T15:40:23.065Z,1.60
2023-05-03T15:42:51.862Z,1.25
2023-05-03T15:45:19.110Z,1.10
2023-05-03T15:47:46.175Z,1.58
2023-05-03T15:50:12.809Z,1.83
2023-05-03T15:52:39.323Z,1.27
2023-05-03T15:55:07.065Z,1.58
2023-05-03T15:57:33.772Z,1.60
2023-05-03T16:00:00.316Z,0.95
2023-05-03T16:02:27.161Z,1.40
2023-05-03T16:04:53.857Z,1.35
2023-05-03T16:07:20.568Z,1.60
2023-05-03T16:09:47.076Z,1.40
2023-05-03T16:12:13.960Z,1.02
2023-05-03T16:14:40.512Z,1.35
2023-05-03T16:17:07.048Z,1.40
2023-05-03T16:19:33.929Z,1.17
2023-05-03T16:22:00.727Z,1.13
2023-05-03T16:24:28.404Z,1.02
2023-05-03T16:26:55.069Z,0.90
2023-05-03T16:29:22.051Z,1.55
2023-05-03T16:31:49.552Z,1.10
2023-05-03T16:34:16.737Z,1.48
2023-05-03T16:36:44.073Z,0.93
2023-05-03T16:39:14.551Z,1.20
2023-05-03T16:41:41.629Z,2.45
2023-05-03T16:44:08.624Z,1.05
2023-05-03T16:46:36.573Z,0.88
2023-05-03T16:49:03.755Z,1.50
2023-05-03T16:51:31.689Z,6.32
2023-05-03T16:53:59.081Z,1.50
2023-05-03T16:56:26.309Z,1.15
2023-05-03T16:58:53.354Z,1.90
2023-05-03T17:01:20.054Z,2.83
2023-05-03T17:03:46.682Z,1.30
2023-05-03T17:06:13.591Z,1.73
2023-05-03T17:08:40.245Z,1.05
2023-05-03T17:11:09.149Z,1.10
2023-05-03T17:13:36.740Z,1.60
2023-05-03T17:16:11.742Z,1.10
2023-05-03T17:18:40.271Z,0.90
2023-05-03T17:21:08.796Z,0.85
2023-05-03T17:23:38.516Z,0.80
2023-05-03T17:26:08.318Z,1.10
2023-05-03T17:28:35.840Z,0.93
2023-05-03T17:31:03.211Z,1.10
2023-05-03T17:33:30.065Z,1.08
2023-05-03T17:35:59.054Z,0.93
2023-05-03T17:38:25.520Z,1.25
2023-05-03T17:40:52.063Z,1.08
2023-05-03T17:43:19.170Z,1.20
2023-05-03T17:45:51.364Z,1.08
2023-05-03T17:48:17.880Z,0.90
2023-05-03T17:50:46.403Z,1.10
2023-05-03T17:53:13.070Z,0.93
2023-05-03T17:55:39.621Z,0.80
2023-05-03T17:58:06.483Z,0.80
2023-05-03T18:00:33.707Z,1.20
2023-05-03T18:03:01.275Z,1.20
2023-05-03T18:05:35.348Z,1.02
2023-05-03T18:08:04.019Z,0.95
2023-05-03T18:10:31.187Z,0.80
2023-05-03T18:12:58.574Z,1.02
2023-05-03T18:15:25.243Z,1.05
2023-05-03T18:17:53.472Z,1.42
2023-05-03T18:20:23.610Z,1.52
2023-05-03T18:22:50.277Z,1.60
2023-05-03T18:25:17.743Z,1.52
2023-05-03T18:27:44.531Z,1.17
2023-05-03T18:30:11.682Z,1.23
2023-05-03T18:32:38.300Z,1.00
2023-05-03T18:35:05.357Z,1.48
2023-05-03T18:37:31.984Z,1.30
2023-05-03T18:40:00.925Z,1.58
2023-05-03T18:42:27.487Z,1.08
2023-05-03T18:44:54.420Z,1.30
2023-05-03T18:47:21.786Z,0.90
2023-05-03T18:50:01.251Z,1.02
2023-05-03T18:52:27.919Z,1.25
2023-05-03T18:54:54.515Z,1.00
2023-05-03T18:57:21.147Z,0.98
2023-05-03T18:59:59.356Z,0.93
2023-05-03T19:02:30.450Z,1.38
2023-05-03T19:04:59.346Z,1.20
2023-05-03T19:07:26.064Z,1.05
2023-05-03T19:09:58.222Z,1.63
2023-05-03T19:12:25.425Z,1.63
2023-05-03T19:14:52.026Z,1.85
2023-05-03T19:17:18.528Z,1.40
2023-05-03T19:19:45.132Z,1.58
2023-05-03T19:22:11.689Z,1.42
2023-05-03T19:24:39.972Z,0.90
2023-05-03T19:27:06.437Z,1.83
2023-05-03T19:29:33.000Z,2.72
2023-05-03T19:31:59.858Z,2.40
2023-05-03T19:34:28.183Z,1.50
2023-05-03T19:36:54.786Z,1.35
2023-05-03T19:39:21.294Z,1.48
2023-05-03T19:41:48.873Z,1.48
2023-05-03T19:44:16.017Z,2.10
2023-05-03T19:46:42.664Z,4.00
2023-05-03T19:49:09.159Z,2.80
2023-05-03T19:51:35.691Z,2.00
2023-05-03T19:54:03.170Z,3.70
2023-05-03T19:56:29.774Z,4.38
2023-05-03T19:58:56.683Z,1.70
2023-05-03T20:01:23.744Z,1.38
2023-05-03T20:03:53.511Z,1.80
2023-05-03T20:06:20.913Z,2.00
2023-05-03T20:08:47.631Z,1.52
2023-05-03T20:11:15.270Z,1.52
2023-05-03T20:13:44.741Z,1.42
2023-05-03T20:16:11.354Z,1.63
2023-05-03T20:18:38.518Z,1.25
2023-05-03T20:21:05.524Z,1.10
2023-05-03T20:23:32.497Z,2.10
2023-05-03T20:25:59.382Z,1.98
2023-05-03T20:28:25.957Z,1.60
2023-05-03T20:30:54.526Z,1.50
2023-05-03T20:33:21.067Z,6.03
2023-05-03T20:35:48.414Z,2.78
2023-05-03T20:38:15.536Z,5.60
2023-05-03T20:40:43.770Z,1.85
2023-05-03T20:43:10.920Z,1.77
2023-05-03T20:45:37.524Z,1.90
2023-05-03T20:48:04.299Z,5.80
2023-05-03T20:50:31.074Z,4.85
2023-05-03T20:52:59.956Z,2.40
2023-05-03T20:55:27.740Z,1.80
2023-05-03T20:57:56.744Z,1.75
2023-05-03T21:00:24.950Z,1.90
2023-05-03T21:02:54.497Z,1.65
2023-05-03T21:05:21.919Z,2.10
2023-05-03T21:07:48.695Z,1.52
2023-05-03T21:10:15.490Z,1.85
2023-05-03T21:12:42.095Z,1.48
2023-05-03T21:15:09.366Z,1.90
2023-05-03T21:17:38.469Z,2.10
2023-05-03T21:20:05.970Z,1.63
2023-05-03T21:22:34.683Z,1.70
2023-05-03T21:25:02.016Z,1.80
2023-05-03T21:27:30.249Z,1.67
2023-05-03T21:29:56.728Z,1.55
2023-05-03T21:32:23.512Z,1.58
2023-05-03T21:34:49.996Z,1.20
2023-05-03T21:37:16.868Z,1.65
2023-05-03T21:39:57.767Z,1.45
2023-05-03T21:42:28.010Z,1.75
2023-05-03T21:44:54.573Z,1.55
2023-05-03T21:47:22.260Z,1.60
2023-05-03T21:49:48.858Z,1.35
2023-05-03T21:52:15.389Z,1.70
2023-05-03T21:54:43.505Z,2.25
2023-05-03T21:57:10.069Z,2.63
2023-05-03T21:59:36.536Z,2.55
2023-05-03T22:02:03.379Z,2.67
2023-05-03T22:04:30.865Z,7.45
2023-05-03T22:06:57.431Z,4.38
2023-05-03T22:09:24.738Z,2.70
2023-05-03T22:11:51.348Z,1.88
2023-05-03T22:14:17.855Z,1.73
2023-05-03T22:16:44.423Z,1.65
2023-05-03T22:19:12.147Z,2.08
2023-05-03T22:21:38.716Z,2.00
2023-05-03T22:24:05.608Z,1.70
2023-05-03T22:26:32.105Z,1.98
2023-05-03T22:28:58.827Z,1.60
2023-05-03T22:31:26.654Z,2.00
2023-05-03T22:33:53.565Z,1.60
2023-05-03T22:36:20.166Z,1.88
2023-05-03T22:38:46.962Z,1.60
2023-05-03T22:41:13.698Z,1.70
2023-05-03T22:43:40.127Z,1.65
2023-05-03T22:46:08.977Z,1.50
2023-05-03T22:48:35.931Z,1.50
2023-05-03T22:51:02.866Z,1.83
2023-05-03T22:53:30.353Z,1.85
2023-05-03T22:56:04.049Z,1.60
2023-05-03T22:58:30.788Z,1.80
2023-05-03T23:00:57.440Z,1.73
2023-05-03T23:03:24.421Z,1.35
2023-05-03T23:05:54.727Z,1.35
2023-05-03T23:08:22.268Z,0.90
2023-05-03T23:10:48.736Z,1.42
2023-05-03T23:13:15.416Z,1.50
2023-05-03T23:15:42.121Z,1.63
2023-05-03T23:18:08.761Z,1.42
2023-05-03T23:20:35.379Z,1.50
2023-05-03T23:23:02.118Z,1.40
2023-05-03T23:25:28.881Z,1.90
2023-05-03T23:27:56.000Z,1.65
2023-05-03T23:30:23.024Z,1.63
2023-05-03T23:32:50.086Z,1.58
2023-05-03T23:35:17.216Z,1.63
2023-05-03T23:37:43.760Z,1.45
2023-05-03T23:40:10.692Z,1.55
2023-05-03T23:42:39.632Z,1.50
2023-05-03T23:45:10.041Z,2.20
2023-05-03T23:47:36.893Z,1.63
2023-05-03T23:50:04.553Z,1.83
2023-05-03T23:52:31.581Z,1.73
2023-05-03T23:54:58.149Z,1.75
2023-05-03T23:57:24.656Z,1.83
2023-05-03T23:59:51.261Z,1.98
